sensor_id;sensor_type;location;lat;lon;timestamp;temperature;humidity
40754;DHT22;26460;42.732;-84.532;2024-03-17T00:01:04;19.90;34.70
40754;DHT22;26460;42.732;-84.532;2024-03-17T00:03:31;20.00;34.80
40754;DHT22;26460;42.732;-84.532;2024-03-17T00:05:58;19.90;34.80
40754;DHT22;26460;42.732;-84.532;2024-03-17T00:08:26;19.90;34.70
40754;DHT22;26460;42.732;-84.532;2024-03-17T00:10:56;19.90;34.60
40754;DHT22;26460;42.732;-84.532;2024-03-17T00:13:24;19.90;34.60
40754;DHT22;26460;42.732;-84.532;2024-03-17T00:15:51;19.90;34.90
40754;DHT22;26460;42.732;-84.532;2024-03-17T00:18:18;19.90;34.70
40754;DHT22;26460;42.732;-84.532;2024-03-17T00:20:45;19.90;34.60
40754;DHT22;26460;42.732;-84.532;2024-03-17T00:23:11;19.90;34.60
40754;DHT22;26460;42.732;-84.532;2024-03-17T00:25:39;19.90;34.60
40754;DHT22;26460;42.732;-84.532;2024-03-17T00:28:06;19.90;34.60
40754;DHT22;26460;42.732;-84.532;2024-03-17T00:30:32;19.90;34.50
40754;DHT22;26460;42.732;-84.532;2024-03-17T00:32:59;19.90;34.50
40754;DHT22;26460;42.732;-84.532;2024-03-17T00:35:26;19.90;34.50
40754;DHT22;26460;42.732;-84.532;2024-03-17T00:37:53;19.90;34.50
40754;DHT22;26460;42.732;-84.532;2024-03-17T00:40:20;19.90;34.50
40754;DHT22;26460;42.732;-84.532;2024-03-17T00:42:47;19.80;34.50
40754;DHT22;26460;42.732;-84.532;2024-03-17T00:45:14;19.80;34.40
40754;DHT22;26460;42.732;-84.532;2024-03-17T00:47:41;19.80;34.40
40754;DHT22;26460;42.732;-84.532;2024-03-17T00:50:08;19.90;34.50
40754;DHT22;26460;42.732;-84.532;2024-03-17T00:52:35;19.80;34.40
40754;DHT22;26460;42.732;-84.532;2024-03-17T00:55:02;19.80;34.40
40754;DHT22;26460;42.732;-84.532;2024-03-17T00:57:28;19.80;34.40
40754;DHT22;26460;42.732;-84.532;2024-03-17T00:59:55;19.80;34.40
40754;DHT22;26460;42.732;-84.532;2024-03-17T01:02:22;19.80;34.40
40754;DHT22;26460;42.732;-84.532;2024-03-17T01:04:49;19.80;34.30
40754;DHT22;26460;42.732;-84.532;2024-03-17T01:07:15;19.80;34.40
40754;DHT22;26460;42.732;-84.532;2024-03-17T01:09:42;19.80;34.40
40754;DHT22;26460;42.732;-84.532;2024-03-17T01:12:08;19.80;34.40
40754;DHT22;26460;42.732;-84.532;2024-03-17T01:14:35;19.80;34.40
40754;DHT22;26460;42.732;-84.532;2024-03-17T01:17:02;19.80;34.40
40754;DHT22;26460;42.732;-84.532;2024-03-17T01:19:31;19.80;34.40
40754;DHT22;26460;42.732;-84.532;2024-03-17T01:22:01;19.80;34.40
40754;DHT22;26460;42.732;-84.532;2024-03-17T01:24:28;19.80;34.30
40754;DHT22;26460;42.732;-84.532;2024-03-17T01:26:59;19.70;34.30
40754;DHT22;26460;42.732;-84.532;2024-03-17T01:29:26;19.80;34.30
40754;DHT22;26460;42.732;-84.532;2024-03-17T01:31:53;19.80;34.30
40754;DHT22;26460;42.732;-84.532;2024-03-17T01:34:20;19.70;34.30
40754;DHT22;26460;42.732;-84.532;2024-03-17T01:36:46;19.70;34.30
40754;DHT22;26460;42.732;-84.532;2024-03-17T01:39:13;19.70;34.30
40754;DHT22;26460;42.732;-84.532;2024-03-17T01:41:41;19.70;34.30
40754;DHT22;26460;42.732;-84.532;2024-03-17T01:44:25;19.70;34.90
40754;DHT22;26460;42.732;-84.532;2024-03-17T01:46:52;19.70;34.30
40754;DHT22;26460;42.732;-84.532;2024-03-17T01:49:21;19.70;34.20
40754;DHT22;26460;42.732;-84.532;2024-03-17T01:51:48;19.70;34.20
40754;DHT22;26460;42.732;-84.532;2024-03-17T01:54:16;19.70;34.20
40754;DHT22;26460;42.732;-84.532;2024-03-17T01:56:44;19.70;34.20
40754;DHT22;26460;42.732;-84.532;2024-03-17T01:59:11;19.70;34.30
40754;DHT22;26460;42.732;-84.532;2024-03-17T02:01:37;19.70;34.20
40754;DHT22;26460;42.732;-84.532;2024-03-17T02:04:05;19.60;34.20
40754;DHT22;26460;42.732;-84.532;2024-03-17T02:06:32;19.60;34.20
40754;DHT22;26460;42.732;-84.532;2024-03-17T02:08:59;19.60;34.20
40754;DHT22;26460;42.732;-84.532;2024-03-17T02:11:33;19.60;34.20
40754;DHT22;26460;42.732;-84.532;2024-03-17T02:14:00;19.60;34.20
40754;DHT22;26460;42.732;-84.532;2024-03-17T02:16:27;19.60;34.20
40754;DHT22;26460;42.732;-84.532;2024-03-17T02:18:55;19.60;34.20
40754;DHT22;26460;42.732;-84.532;2024-03-17T02:21:22;19.60;34.20
40754;DHT22;26460;42.732;-84.532;2024-03-17T02:23:51;19.60;34.20
40754;DHT22;26460;42.732;-84.532;2024-03-17T02:26:18;19.60;34.20
40754;DHT22;26460;42.732;-84.532;2024-03-17T02:28:46;19.60;34.20
40754;DHT22;26460;42.732;-84.532;2024-03-17T02:31:14;19.60;34.20
40754;DHT22;26460;42.732;-84.532;2024-03-17T02:33:42;19.60;34.20
40754;DHT22;26460;42.732;-84.532;2024-03-17T02:36:10;19.60;34.20
40754;DHT22;26460;42.732;-84.532;2024-03-17T02:38:38;19.60;34.20
40754;DHT22;26460;42.732;-84.532;2024-03-17T02:41:24;19.50;34.20
40754;DHT22;26460;42.732;-84.532;2024-03-17T02:43:50;19.60;34.20
40754;DHT22;26460;42.732;-84.532;2024-03-17T02:46:18;19.60;34.20
40754;DHT22;26460;42.732;-84.532;2024-03-17T02:48:52;19.50;34.10
40754;DHT22;26460;42.732;-84.532;2024-03-17T02:51:20;19.50;34.10
40754;DHT22;26460;42.732;-84.532;2024-03-17T02:53:48;19.50;34.10
40754;DHT22;26460;42.732;-84.532;2024-03-17T02:56:16;19.50;34.10
40754;DHT22;26460;42.732;-84.532;2024-03-17T02:58:44;19.50;34.10
40754;DHT22;26460;42.732;-84.532;2024-03-17T03:01:12;19.50;34.10
40754;DHT22;26460;42.732;-84.532;2024-03-17T03:03:39;19.50;34.10
40754;DHT22;26460;42.732;-84.532;2024-03-17T03:06:06;19.50;34.10
40754;DHT22;26460;42.732;-84.532;2024-03-17T03:08:36;19.50;34.10
40754;DHT22;26460;42.732;-84.532;2024-03-17T03:11:06;19.50;34.10
40754;DHT22;26460;42.732;-84.532;2024-03-17T03:13:33;19.50;34.00
40754;DHT22;26460;42.732;-84.532;2024-03-17T03:16:00;19.50;34.00
40754;DHT22;26460;42.732;-84.532;2024-03-17T03:18:26;19.50;34.10
40754;DHT22;26460;42.732;-84.532;2024-03-17T03:20:53;19.40;34.00
40754;DHT22;26460;42.732;-84.532;2024-03-17T03:23:19;19.40;34.00
40754;DHT22;26460;42.732;-84.532;2024-03-17T03:25:46;19.40;33.90
40754;DHT22;26460;42.732;-84.532;2024-03-17T03:28:14;19.40;33.90
40754;DHT22;26460;42.732;-84.532;2024-03-17T03:30:40;19.40;33.90
40754;DHT22;26460;42.732;-84.532;2024-03-17T03:33:07;19.40;33.90
40754;DHT22;26460;42.732;-84.532;2024-03-17T03:35:33;19.40;33.90
40754;DHT22;26460;42.732;-84.532;2024-03-17T03:38:00;19.40;33.80
40754;DHT22;26460;42.732;-84.532;2024-03-17T03:40:28;19.40;33.90
40754;DHT22;26460;42.732;-84.532;2024-03-17T03:42:55;19.30;33.80
40754;DHT22;26460;42.732;-84.532;2024-03-17T03:45:22;19.30;33.70
40754;DHT22;26460;42.732;-84.532;2024-03-17T03:47:50;19.40;33.90
40754;DHT22;26460;42.732;-84.532;2024-03-17T03:50:19;19.30;33.70
40754;DHT22;26460;42.732;-84.532;2024-03-17T03:52:46;19.30;33.70
40754;DHT22;26460;42.732;-84.532;2024-03-17T03:55:15;19.30;33.80
40754;DHT22;26460;42.732;-84.532;2024-03-17T03:57:42;19.30;33.70
40754;DHT22;26460;42.732;-84.532;2024-03-17T04:00:09;19.30;33.70
40754;DHT22;26460;42.732;-84.532;2024-03-17T04:02:40;19.30;33.70
40754;DHT22;26460;42.732;-84.532;2024-03-17T04:05:06;19.30;33.70
40754;DHT22;26460;42.732;-84.532;2024-03-17T04:07:34;19.30;33.70
40754;DHT22;26460;42.732;-84.532;2024-03-17T04:10:03;19.30;33.70
40754;DHT22;26460;42.732;-84.532;2024-03-17T04:12:30;19.30;33.70
40754;DHT22;26460;42.732;-84.532;2024-03-17T04:15:00;19.20;33.60
40754;DHT22;26460;42.732;-84.532;2024-03-17T04:17:27;19.30;33.70
40754;DHT22;26460;42.732;-84.532;2024-03-17T04:19:54;19.20;33.60
40754;DHT22;26460;42.732;-84.532;2024-03-17T04:22:22;19.20;33.60
40754;DHT22;26460;42.732;-84.532;2024-03-17T04:24:50;19.20;33.70
40754;DHT22;26460;42.732;-84.532;2024-03-17T04:27:20;19.20;33.60
40754;DHT22;26460;42.732;-84.532;2024-03-17T04:29:54;19.20;33.60
40754;DHT22;26460;42.732;-84.532;2024-03-17T04:32:24;19.20;33.70
40754;DHT22;26460;42.732;-84.532;2024-03-17T04:34:53;19.20;33.70
40754;DHT22;26460;42.732;-84.532;2024-03-17T04:37:20;19.20;33.70
40754;DHT22;26460;42.732;-84.532;2024-03-17T04:39:47;19.20;33.70
40754;DHT22;26460;42.732;-84.532;2024-03-17T04:42:15;19.20;33.60
40754;DHT22;26460;42.732;-84.532;2024-03-17T04:44:43;19.20;33.70
40754;DHT22;26460;42.732;-84.532;2024-03-17T04:47:10;19.10;33.60
40754;DHT22;26460;42.732;-84.532;2024-03-17T04:49:41;19.10;33.60
40754;DHT22;26460;42.732;-84.532;2024-03-17T04:52:10;19.10;33.60
40754;DHT22;26460;42.732;-84.532;2024-03-17T04:54:37;19.10;33.60
40754;DHT22;26460;42.732;-84.532;2024-03-17T04:57:03;19.10;33.70
40754;DHT22;26460;42.732;-84.532;2024-03-17T04:59:33;19.10;33.60
40754;DHT22;26460;42.732;-84.532;2024-03-17T05:02:00;19.10;33.60
40754;DHT22;26460;42.732;-84.532;2024-03-17T05:04:26;19.10;33.60
40754;DHT22;26460;42.732;-84.532;2024-03-17T05:06:53;19.10;33.60
40754;DHT22;26460;42.732;-84.532;2024-03-17T05:09:19;19.10;33.70
40754;DHT22;26460;42.732;-84.532;2024-03-17T05:11:46;19.10;33.70
40754;DHT22;26460;42.732;-84.532;2024-03-17T05:14:13;19.00;33.70
40754;DHT22;26460;42.732;-84.532;2024-03-17T05:16:40;19.00;33.70
40754;DHT22;26460;42.732;-84.532;2024-03-17T05:19:06;19.10;33.70
40754;DHT22;26460;42.732;-84.532;2024-03-17T05:21:35;19.00;33.70
40754;DHT22;26460;42.732;-84.532;2024-03-17T05:24:05;19.00;33.70
40754;DHT22;26460;42.732;-84.532;2024-03-17T05:26:32;19.00;33.60
40754;DHT22;26460;42.732;-84.532;2024-03-17T05:28:58;19.00;33.70
40754;DHT22;26460;42.732;-84.532;2024-03-17T05:31:25;19.00;33.70
40754;DHT22;26460;42.732;-84.532;2024-03-17T05:33:52;19.00;33.70
40754;DHT22;26460;42.732;-84.532;2024-03-17T05:36:18;19.00;33.70
40754;DHT22;26460;42.732;-84.532;2024-03-17T05:38:46;19.00;33.70
40754;DHT22;26460;42.732;-84.532;2024-03-17T05:41:13;19.00;33.70
40754;DHT22;26460;42.732;-84.532;2024-03-17T05:43:40;19.00;33.70
40754;DHT22;26460;42.732;-84.532;2024-03-17T05:46:11;19.00;34.00
40754;DHT22;26460;42.732;-84.532;2024-03-17T05:48:39;19.00;33.70
40754;DHT22;26460;42.732;-84.532;2024-03-17T05:51:08;18.90;33.60
40754;DHT22;26460;42.732;-84.532;2024-03-17T05:53:35;19.00;33.70
40754;DHT22;26460;42.732;-84.532;2024-03-17T05:56:03;18.90;33.70
40754;DHT22;26460;42.732;-84.532;2024-03-17T05:58:30;18.90;33.70
40754;DHT22;26460;42.732;-84.532;2024-03-17T06:00:56;18.90;33.70
40754;DHT22;26460;42.732;-84.532;2024-03-17T06:03:24;18.90;33.60
40754;DHT22;26460;42.732;-84.532;2024-03-17T06:05:51;18.90;33.60
40754;DHT22;26460;42.732;-84.532;2024-03-17T06:08:17;18.90;33.70
40754;DHT22;26460;42.732;-84.532;2024-03-17T06:10:47;18.90;33.60
40754;DHT22;26460;42.732;-84.532;2024-03-17T06:13:14;18.80;33.60
40754;DHT22;26460;42.732;-84.532;2024-03-17T06:15:45;18.90;33.60
40754;DHT22;26460;42.732;-84.532;2024-03-17T06:18:13;18.90;33.60
40754;DHT22;26460;42.732;-84.532;2024-03-17T06:20:42;18.90;33.60
40754;DHT22;26460;42.732;-84.532;2024-03-17T06:23:13;18.90;33.60
40754;DHT22;26460;42.732;-84.532;2024-03-17T06:25:48;18.80;33.60
40754;DHT22;26460;42.732;-84.532;2024-03-17T06:28:16;18.80;33.50
40754;DHT22;26460;42.732;-84.532;2024-03-17T06:30:54;18.80;33.60
40754;DHT22;26460;42.732;-84.532;2024-03-17T06:33:20;18.80;33.60
40754;DHT22;26460;42.732;-84.532;2024-03-17T06:35:47;18.80;33.50
40754;DHT22;26460;42.732;-84.532;2024-03-17T06:38:15;18.80;33.50
40754;DHT22;26460;42.732;-84.532;2024-03-17T06:40:47;18.80;33.50
40754;DHT22;26460;42.732;-84.532;2024-03-17T06:43:14;18.80;33.50
40754;DHT22;26460;42.732;-84.532;2024-03-17T06:45:40;18.80;33.50
40754;DHT22;26460;42.732;-84.532;2024-03-17T06:48:07;18.80;33.50
40754;DHT22;26460;42.732;-84.532;2024-03-17T06:50:33;18.80;33.50
40754;DHT22;26460;42.732;-84.532;2024-03-17T06:53:00;18.80;33.50
40754;DHT22;26460;42.732;-84.532;2024-03-17T06:55:26;18.70;33.50
40754;DHT22;26460;42.732;-84.532;2024-03-17T06:57:54;18.80;33.50
40754;DHT22;26460;42.732;-84.532;2024-03-17T07:00:20;18.70;33.40
40754;DHT22;26460;42.732;-84.532;2024-03-17T07:02:51;18.70;33.50
40754;DHT22;26460;42.732;-84.532;2024-03-17T07:05:17;18.70;33.50
40754;DHT22;26460;42.732;-84.532;2024-03-17T07:07:45;18.70;33.50
40754;DHT22;26460;42.732;-84.532;2024-03-17T07:10:12;18.70;33.50
40754;DHT22;26460;42.732;-84.532;2024-03-17T07:12:39;18.70;33.50
40754;DHT22;26460;42.732;-84.532;2024-03-17T07:15:06;18.70;33.50
40754;DHT22;26460;42.732;-84.532;2024-03-17T07:17:33;18.70;33.50
40754;DHT22;26460;42.732;-84.532;2024-03-17T07:20:00;18.70;33.50
40754;DHT22;26460;42.732;-84.532;2024-03-17T07:22:27;18.70;33.50
40754;DHT22;26460;42.732;-84.532;2024-03-17T07:24:54;18.70;33.50
40754;DHT22;26460;42.732;-84.532;2024-03-17T07:27:28;18.70;33.50
40754;DHT22;26460;42.732;-84.532;2024-03-17T07:29:54;18.60;33.40
40754;DHT22;26460;42.732;-84.532;2024-03-17T07:32:22;18.60;33.40
40754;DHT22;26460;42.732;-84.532;2024-03-17T07:34:51;18.60;33.40
40754;DHT22;26460;42.732;-84.532;2024-03-17T07:37:18;18.60;33.40
40754;DHT22;26460;42.732;-84.532;2024-03-17T07:39:45;18.60;33.40
40754;DHT22;26460;42.732;-84.532;2024-03-17T07:42:15;18.60;33.40
40754;DHT22;26460;42.732;-84.532;2024-03-17T07:44:45;18.60;33.40
40754;DHT22;26460;42.732;-84.532;2024-03-17T07:47:11;18.60;33.40
40754;DHT22;26460;42.732;-84.532;2024-03-17T07:49:38;18.60;33.40
40754;DHT22;26460;42.732;-84.532;2024-03-17T07:52:04;18.60;33.40
40754;DHT22;26460;42.732;-84.532;2024-03-17T07:54:31;18.60;33.40
40754;DHT22;26460;42.732;-84.532;2024-03-17T07:56:58;18.60;33.30
40754;DHT22;26460;42.732;-84.532;2024-03-17T07:59:24;18.50;33.30
40754;DHT22;26460;42.732;-84.532;2024-03-17T08:01:51;18.50;33.30
40754;DHT22;26460;42.732;-84.532;2024-03-17T08:04:17;18.50;33.30
40754;DHT22;26460;42.732;-84.532;2024-03-17T08:06:44;18.50;33.30
40754;DHT22;26460;42.732;-84.532;2024-03-17T08:09:10;18.60;33.30
40754;DHT22;26460;42.732;-84.532;2024-03-17T08:11:38;18.50;33.30
40754;DHT22;26460;42.732;-84.532;2024-03-17T08:14:09;18.50;33.30
40754;DHT22;26460;42.732;-84.532;2024-03-17T08:16:36;18.50;33.20
40754;DHT22;26460;42.732;-84.532;2024-03-17T08:19:02;18.50;33.20
40754;DHT22;26460;42.732;-84.532;2024-03-17T08:21:29;18.50;33.20
40754;DHT22;26460;42.732;-84.532;2024-03-17T08:23:56;18.50;33.20
40754;DHT22;26460;42.732;-84.532;2024-03-17T08:26:22;18.50;33.20
40754;DHT22;26460;42.732;-84.532;2024-03-17T08:28:49;18.50;33.20
40754;DHT22;26460;42.732;-84.532;2024-03-17T08:31:16;18.50;33.20
40754;DHT22;26460;42.732;-84.532;2024-03-17T08:33:42;18.50;33.80
40754;DHT22;26460;42.732;-84.532;2024-03-17T08:36:09;18.40;33.20
40754;DHT22;26460;42.732;-84.532;2024-03-17T08:38:37;18.50;33.10
40754;DHT22;26460;42.732;-84.532;2024-03-17T08:41:06;18.40;33.10
40754;DHT22;26460;42.732;-84.532;2024-03-17T08:43:34;18.50;33.10
40754;DHT22;26460;42.732;-84.532;2024-03-17T08:46:03;18.50;33.20
40754;DHT22;26460;42.732;-84.532;2024-03-17T08:48:33;18.40;33.10
40754;DHT22;26460;42.732;-84.532;2024-03-17T08:51:01;18.40;33.10
40754;DHT22;26460;42.732;-84.532;2024-03-17T08:53:28;18.40;33.10
40754;DHT22;26460;42.732;-84.532;2024-03-17T08:55:56;18.40;33.10
40754;DHT22;26460;42.732;-84.532;2024-03-17T08:58:23;18.40;33.10
40754;DHT22;26460;42.732;-84.532;2024-03-17T09:00:50;18.40;33.10
40754;DHT22;26460;42.732;-84.532;2024-03-17T09:03:20;18.40;33.10
40754;DHT22;26460;42.732;-84.532;2024-03-17T09:05:47;18.40;33.10
40754;DHT22;26460;42.732;-84.532;2024-03-17T09:08:19;18.30;33.00
40754;DHT22;26460;42.732;-84.532;2024-03-17T09:10:50;18.40;33.10
40754;DHT22;26460;42.732;-84.532;2024-03-17T09:13:21;18.40;33.10
40754;DHT22;26460;42.732;-84.532;2024-03-17T09:16:00;18.30;33.00
40754;DHT22;26460;42.732;-84.532;2024-03-17T09:18:32;18.30;33.10
40754;DHT22;26460;42.732;-84.532;2024-03-17T09:21:00;18.30;33.00
40754;DHT22;26460;42.732;-84.532;2024-03-17T09:23:27;18.30;33.00
40754;DHT22;26460;42.732;-84.532;2024-03-17T09:26:01;18.30;33.00
40754;DHT22;26460;42.732;-84.532;2024-03-17T09:28:29;18.30;32.90
40754;DHT22;26460;42.732;-84.532;2024-03-17T09:30:56;18.30;32.90
40754;DHT22;26460;42.732;-84.532;2024-03-17T09:33:24;18.30;32.90
40754;DHT22;26460;42.732;-84.532;2024-03-17T09:38:24;18.30;32.90
40754;DHT22;26460;42.732;-84.532;2024-03-17T09:40:51;18.30;32.80
40754;DHT22;26460;42.732;-84.532;2024-03-17T09:43:20;18.30;32.80
40754;DHT22;26460;42.732;-84.532;2024-03-17T09:45:48;18.20;32.70
40754;DHT22;26460;42.732;-84.532;2024-03-17T09:48:16;18.20;32.70
40754;DHT22;26460;42.732;-84.532;2024-03-17T09:51:06;18.20;32.70
40754;DHT22;26460;42.732;-84.532;2024-03-17T09:53:34;18.20;32.70
40754;DHT22;26460;42.732;-84.532;2024-03-17T09:56:06;18.20;32.70
40754;DHT22;26460;42.732;-84.532;2024-03-17T09:58:34;18.20;32.70
40754;DHT22;26460;42.732;-84.532;2024-03-17T10:01:01;18.20;32.70
40754;DHT22;26460;42.732;-84.532;2024-03-17T10:06:16;18.20;32.70
40754;DHT22;26460;42.732;-84.532;2024-03-17T10:08:50;18.20;32.60
40754;DHT22;26460;42.732;-84.532;2024-03-17T10:11:18;18.20;32.60
40754;DHT22;26460;42.732;-84.532;2024-03-17T10:13:46;18.20;32.60
40754;DHT22;26460;42.732;-84.532;2024-03-17T10:16:24;18.20;32.50
40754;DHT22;26460;42.732;-84.532;2024-03-17T10:21:32;18.20;32.50
40754;DHT22;26460;42.732;-84.532;2024-03-17T10:24:13;18.10;32.50
40754;DHT22;26460;42.732;-84.532;2024-03-17T10:26:44;18.10;32.50
40754;DHT22;26460;42.732;-84.532;2024-03-17T10:29:25;18.10;32.50
40754;DHT22;26460;42.732;-84.532;2024-03-17T10:31:52;18.10;33.10
40754;DHT22;26460;42.732;-84.532;2024-03-17T10:34:21;18.10;32.40
40754;DHT22;26460;42.732;-84.532;2024-03-17T10:36:52;18.10;32.40
40754;DHT22;26460;42.732;-84.532;2024-03-17T10:39:28;18.10;32.40
40754;DHT22;26460;42.732;-84.532;2024-03-17T10:42:03;18.10;32.40
40754;DHT22;26460;42.732;-84.532;2024-03-17T10:44:31;18.10;33.00
40754;DHT22;26460;42.732;-84.532;2024-03-17T10:47:01;18.10;32.40
40754;DHT22;26460;42.732;-84.532;2024-03-17T10:49:28;18.10;32.40
40754;DHT22;26460;42.732;-84.532;2024-03-17T10:52:03;18.00;32.30
40754;DHT22;26460;42.732;-84.532;2024-03-17T10:54:31;18.10;32.40
40754;DHT22;26460;42.732;-84.532;2024-03-17T10:57:31;18.00;32.30
40754;DHT22;26460;42.732;-84.532;2024-03-17T11:00:05;18.00;32.30
40754;DHT22;26460;42.732;-84.532;2024-03-17T11:02:35;18.00;32.30
40754;DHT22;26460;42.732;-84.532;2024-03-17T11:05:03;18.00;32.30
40754;DHT22;26460;42.732;-84.532;2024-03-17T11:07:30;18.00;32.30
40754;DHT22;26460;42.732;-84.532;2024-03-17T11:09:59;18.00;32.30
40754;DHT22;26460;42.732;-84.532;2024-03-17T11:12:44;18.00;32.30
40754;DHT22;26460;42.732;-84.532;2024-03-17T11:17:47;18.00;32.30
40754;DHT22;26460;42.732;-84.532;2024-03-17T11:20:27;18.00;32.30
40754;DHT22;26460;42.732;-84.532;2024-03-17T11:23:00;18.00;32.30
40754;DHT22;26460;42.732;-84.532;2024-03-17T11:27:57;18.00;32.30
40754;DHT22;26460;42.732;-84.532;2024-03-17T11:39:00;17.90;32.20
40754;DHT22;26460;42.732;-84.532;2024-03-17T11:41:37;17.90;32.20
40754;DHT22;26460;42.732;-84.532;2024-03-17T11:46:58;17.90;32.20
40754;DHT22;26460;42.732;-84.532;2024-03-17T11:51:57;17.90;32.20
40754;DHT22;26460;42.732;-84.532;2024-03-17T11:54:25;17.90;32.30
40754;DHT22;26460;42.732;-84.532;2024-03-17T11:56:54;17.80;32.20
40754;DHT22;26460;42.732;-84.532;2024-03-17T11:59:22;17.80;32.20
40754;DHT22;26460;42.732;-84.532;2024-03-17T12:01:50;17.80;32.20
40754;DHT22;26460;42.732;-84.532;2024-03-17T12:04:19;17.80;32.80
40754;DHT22;26460;42.732;-84.532;2024-03-17T12:06:47;17.80;32.20
40754;DHT22;26460;42.732;-84.532;2024-03-17T12:09:28;17.80;32.20
40754;DHT22;26460;42.732;-84.532;2024-03-17T12:12:03;17.80;32.20
40754;DHT22;26460;42.732;-84.532;2024-03-17T12:14:39;17.80;32.20
40754;DHT22;26460;42.732;-84.532;2024-03-17T12:17:10;17.80;32.20
40754;DHT22;26460;42.732;-84.532;2024-03-17T12:19:37;17.80;32.10
40754;DHT22;26460;42.732;-84.532;2024-03-17T12:22:06;17.80;32.10
40754;DHT22;26460;42.732;-84.532;2024-03-17T12:24:34;17.80;32.10
40754;DHT22;26460;42.732;-84.532;2024-03-17T12:27:04;17.80;32.10
40754;DHT22;26460;42.732;-84.532;2024-03-17T12:29:35;17.70;32.00
40754;DHT22;26460;42.732;-84.532;2024-03-17T12:32:05;17.70;32.10
40754;DHT22;26460;42.732;-84.532;2024-03-17T12:34:34;17.70;32.00
40754;DHT22;26460;42.732;-84.532;2024-03-17T12:37:01;17.70;32.00
40754;DHT22;26460;42.732;-84.532;2024-03-17T12:39:32;17.70;32.00
40754;DHT22;26460;42.732;-84.532;2024-03-17T12:42:07;17.70;32.00
40754;DHT22;26460;42.732;-84.532;2024-03-17T12:44:37;17.70;32.00
40754;DHT22;26460;42.732;-84.532;2024-03-17T12:47:14;17.70;32.00
40754;DHT22;26460;42.732;-84.532;2024-03-17T12:49:45;17.70;32.00
40754;DHT22;26460;42.732;-84.532;2024-03-17T12:52:26;17.70;32.00
40754;DHT22;26460;42.732;-84.532;2024-03-17T12:55:09;17.60;32.00
40754;DHT22;26460;42.732;-84.532;2024-03-17T13:01:01;17.70;32.00
40754;DHT22;26460;42.732;-84.532;2024-03-17T13:03:31;17.60;32.00
40754;DHT22;26460;42.732;-84.532;2024-03-17T13:06:02;17.60;31.90
40754;DHT22;26460;42.732;-84.532;2024-03-17T13:08:30;17.60;32.00
40754;DHT22;26460;42.732;-84.532;2024-03-17T13:11:01;17.60;31.90
40754;DHT22;26460;42.732;-84.532;2024-03-17T13:13:30;17.60;31.90
40754;DHT22;26460;42.732;-84.532;2024-03-17T13:15:57;17.60;31.90
40754;DHT22;26460;42.732;-84.532;2024-03-17T13:18:24;17.60;31.90
40754;DHT22;26460;42.732;-84.532;2024-03-17T13:20:51;17.60;31.90
40754;DHT22;26460;42.732;-84.532;2024-03-17T13:23:20;17.60;31.90
40754;DHT22;26460;42.732;-84.532;2024-03-17T13:25:50;17.50;31.90
40754;DHT22;26460;42.732;-84.532;2024-03-17T13:28:17;17.50;31.90
40754;DHT22;26460;42.732;-84.532;2024-03-17T13:30:44;17.50;31.90
40754;DHT22;26460;42.732;-84.532;2024-03-17T13:33:10;17.50;31.90
40754;DHT22;26460;42.732;-84.532;2024-03-17T13:35:41;17.50;31.80
40754;DHT22;26460;42.732;-84.532;2024-03-17T13:38:09;17.50;31.80
40754;DHT22;26460;42.732;-84.532;2024-03-17T13:40:40;17.50;31.80
40754;DHT22;26460;42.732;-84.532;2024-03-17T13:43:08;17.50;31.80
40754;DHT22;26460;42.732;-84.532;2024-03-17T13:45:39;17.50;31.90
40754;DHT22;26460;42.732;-84.532;2024-03-17T13:48:06;17.50;31.80
40754;DHT22;26460;42.732;-84.532;2024-03-17T13:50:40;17.50;31.80
40754;DHT22;26460;42.732;-84.532;2024-03-17T13:53:10;17.40;31.80
40754;DHT22;26460;42.732;-84.532;2024-03-17T13:55:37;17.40;31.80
40754;DHT22;26460;42.732;-84.532;2024-03-17T13:58:04;17.40;31.80
40754;DHT22;26460;42.732;-84.532;2024-03-17T14:00:32;17.40;31.80
40754;DHT22;26460;42.732;-84.532;2024-03-17T14:03:02;17.40;31.80
40754;DHT22;26460;42.732;-84.532;2024-03-17T14:05:29;17.40;31.80
40754;DHT22;26460;42.732;-84.532;2024-03-17T14:07:57;17.40;31.80
40754;DHT22;26460;42.732;-84.532;2024-03-17T14:10:25;17.40;31.80
40754;DHT22;26460;42.732;-84.532;2024-03-17T14:12:52;17.40;31.70
40754;DHT22;26460;42.732;-84.532;2024-03-17T14:15:19;17.40;31.80
40754;DHT22;26460;42.732;-84.532;2024-03-17T14:17:47;17.40;32.40
40754;DHT22;26460;42.732;-84.532;2024-03-17T14:20:18;17.40;31.80
40754;DHT22;26460;42.732;-84.532;2024-03-17T14:22:45;17.40;31.80
40754;DHT22;26460;42.732;-84.532;2024-03-17T14:25:19;17.40;31.80
40754;DHT22;26460;42.732;-84.532;2024-03-17T14:27:47;17.30;31.80
40754;DHT22;26460;42.732;-84.532;2024-03-17T14:30:18;17.30;31.70
40754;DHT22;26460;42.732;-84.532;2024-03-17T14:32:46;17.30;31.70
40754;DHT22;26460;42.732;-84.532;2024-03-17T14:35:15;17.30;31.70
40754;DHT22;26460;42.732;-84.532;2024-03-17T14:37:43;17.30;31.70
40754;DHT22;26460;42.732;-84.532;2024-03-17T14:40:17;17.30;31.70
40754;DHT22;26460;42.732;-84.532;2024-03-17T14:42:53;17.30;31.70
40754;DHT22;26460;42.732;-84.532;2024-03-17T14:45:22;17.30;31.70
40754;DHT22;26460;42.732;-84.532;2024-03-17T14:47:51;17.30;31.60
40754;DHT22;26460;42.732;-84.532;2024-03-17T14:50:18;17.30;31.60
40754;DHT22;26460;42.732;-84.532;2024-03-17T14:52:45;17.30;31.60
40754;DHT22;26460;42.732;-84.532;2024-03-17T14:55:12;17.20;31.60
40754;DHT22;26460;42.732;-84.532;2024-03-17T14:57:39;17.20;31.60
40754;DHT22;26460;42.732;-84.532;2024-03-17T15:00:08;17.20;32.30
40754;DHT22;26460;42.732;-84.532;2024-03-17T15:02:40;17.20;31.70
40754;DHT22;26460;42.732;-84.532;2024-03-17T15:05:08;17.20;31.60
40754;DHT22;26460;42.732;-84.532;2024-03-17T15:07:35;17.20;31.70
40754;DHT22;26460;42.732;-84.532;2024-03-17T15:10:02;17.20;31.60
40754;DHT22;26460;42.732;-84.532;2024-03-17T15:12:29;17.20;31.60
40754;DHT22;26460;42.732;-84.532;2024-03-17T15:14:56;17.20;31.70
40754;DHT22;26460;42.732;-84.532;2024-03-17T15:17:22;17.20;31.70
40754;DHT22;26460;42.732;-84.532;2024-03-17T15:19:49;17.20;31.70
40754;DHT22;26460;42.732;-84.532;2024-03-17T15:22:15;17.20;31.70
40754;DHT22;26460;42.732;-84.532;2024-03-17T15:24:42;17.20;31.70
40754;DHT22;26460;42.732;-84.532;2024-03-17T15:27:09;17.20;31.70
40754;DHT22;26460;42.732;-84.532;2024-03-17T15:29:36;17.20;31.80
40754;DHT22;26460;42.732;-84.532;2024-03-17T15:32:02;17.20;31.80
40754;DHT22;26460;42.732;-84.532;2024-03-17T15:34:30;17.10;31.70
40754;DHT22;26460;42.732;-84.532;2024-03-17T15:36:59;17.10;31.80
40754;DHT22;26460;42.732;-84.532;2024-03-17T15:39:26;17.10;31.80
40754;DHT22;26460;42.732;-84.532;2024-03-17T15:41:52;17.10;31.80